createdAt,value
2018-09-25T00:04:37.123Z,2.30
2018-09-25T00:09:45.662Z,2.30
2018-09-25T00:14:54.519Z,2.03
2018-09-25T00:20:03.411Z,2.10
2018-09-25T00:25:12.084Z,2.23
2018-09-25T00:30:21.390Z,1.37
2018-09-25T00:35:30.281Z,2.50
2018-09-25T00:40:39.061Z,2.10
2018-09-25T00:45:47.627Z,2.20
2018-09-25T00:50:56.588Z,2.23
2018-09-25T00:56:05.290Z,2.07
2018-09-25T01:01:13.965Z,1.73
2018-09-25T01:06:22.479Z,2.10
2018-09-25T01:11:31.027Z,2.60
2018-09-25T01:16:39.585Z,2.13
2018-09-25T01:21:48.113Z,1.93
2018-09-25T01:26:56.636Z,1.77
2018-09-25T01:32:05.260Z,1.73
2018-09-25T01:37:13.808Z,2.07
2018-09-25T01:42:22.493Z,1.57
2018-09-25T01:47:31.016Z,1.87
2018-09-25T01:52:39.695Z,2.20
2018-09-25T01:57:48.269Z,1.63
2018-09-25T02:02:57.101Z,1.77
2018-09-25T02:08:05.555Z,1.83
2018-09-25T02:13:14.173Z,1.97
2018-09-25T02:18:23.121Z,1.50
2018-09-25T02:23:31.798Z,2.00
2018-09-25T02:28:40.415Z,1.83
2018-09-25T02:33:49.052Z,1.67
2018-09-25T02:38:57.688Z,1.60
2018-09-25T02:44:06.423Z,1.60
2018-09-25T02:49:15.151Z,1.80
2018-09-25T02:54:23.722Z,1.63
2018-09-25T02:59:32.446Z,1.63
2018-09-25T03:04:41.141Z,1.40
2018-09-25T03:09:49.858Z,1.50
2018-09-25T03:14:58.600Z,1.50
2018-09-25T03:20:07.298Z,1.40
2018-09-25T03:25:16.080Z,1.40
2018-09-25T03:30:24.628Z,2.50
2018-09-25T03:35:33.143Z,1.70
2018-09-25T03:40:41.806Z,2.20
2018-09-25T03:45:50.670Z,1.67
2018-09-25T03:50:59.243Z,1.60
2018-09-25T03:56:08.684Z,1.57
2018-09-25T04:01:17.406Z,1.80
2018-09-25T04:06:25.988Z,1.50
2018-09-25T04:11:34.731Z,1.67
2018-09-25T04:16:43.367Z,1.80
2018-09-25T04:21:52.040Z,1.50
2018-09-25T04:27:07.233Z,1.67
2018-09-25T04:32:16.272Z,2.40
2018-09-25T04:37:24.830Z,2.20
2018-09-25T04:42:33.481Z,2.00
2018-09-25T04:47:42.479Z,2.33
2018-09-25T04:52:51.152Z,1.40
2018-09-25T04:58:00.984Z,1.83
2018-09-25T05:03:09.784Z,1.53
2018-09-25T05:08:18.434Z,1.93
2018-09-25T05:13:27.556Z,1.63
2018-09-25T05:18:36.370Z,1.70
2018-09-25T05:23:45.004Z,1.60
2018-09-25T05:28:55.063Z,1.80
2018-09-25T05:34:03.680Z,1.40
2018-09-25T05:39:14.336Z,1.70
2018-09-25T05:44:23.121Z,1.53
2018-09-25T05:49:31.902Z,1.60
2018-09-25T05:54:40.615Z,1.40
2018-09-25T05:59:49.276Z,2.20
2018-09-25T06:04:57.820Z,2.60
2018-09-25T06:10:06.570Z,2.00
2018-09-25T06:15:15.180Z,2.60
2018-09-25T06:20:24.117Z,2.93
2018-09-25T06:25:33.210Z,3.00
2018-09-25T06:30:42.413Z,2.67
2018-09-25T06:35:52.682Z,2.70
2018-09-25T06:41:01.385Z,2.97
2018-09-25T06:46:10.194Z,3.20
2018-09-25T06:51:19.075Z,2.87
2018-09-25T06:56:28.102Z,2.10
2018-09-25T07:01:36.807Z,2.10
2018-09-25T07:06:45.201Z,2.13
2018-09-25T07:11:53.763Z,2.50
2018-09-25T07:17:02.315Z,2.03
2018-09-25T07:22:11.136Z,2.27
2018-09-25T07:27:19.826Z,2.77
2018-09-25T07:32:29.009Z,2.10
2018-09-25T07:37:37.850Z,2.33
2018-09-25T07:42:46.411Z,1.70
2018-09-25T07:47:55.244Z,2.53
2018-09-25T07:53:03.936Z,2.37
2018-09-25T07:58:14.556Z,2.33
2018-09-25T08:03:23.924Z,2.00
2018-09-25T08:08:32.709Z,2.60
2018-09-25T08:13:41.387Z,2.77
2018-09-25T08:18:50.165Z,2.43
2018-09-25T08:23:58.801Z,2.33
2018-09-25T08:29:07.457Z,2.37
2018-09-25T08:34:16.617Z,2.00
2018-09-25T08:39:26.678Z,2.33
2018-09-25T08:44:35.373Z,2.43
2018-09-25T08:49:43.928Z,2.47
2018-09-25T08:54:52.841Z,2.33
2018-09-25T09:00:02.146Z,3.07
2018-09-25T09:05:11.108Z,2.07
2018-09-25T09:10:20.005Z,2.20
2018-09-25T09:15:28.838Z,2.70
2018-09-25T09:20:37.416Z,2.77
2018-09-25T09:25:46.148Z,2.27
2018-09-25T09:30:55.146Z,2.40
2018-09-25T09:36:04.034Z,2.40
2018-09-25T09:41:13.397Z,2.33
2018-09-25T09:46:22.078Z,2.20
2018-09-25T09:51:30.739Z,1.80
2018-09-25T09:56:39.709Z,2.40
2018-09-25T10:01:49.483Z,2.50
2018-09-25T10:06:58.083Z,1.97
2018-09-25T10:12:07.208Z,1.70
2018-09-25T10:17:15.962Z,1.50
2018-09-25T10:22:24.849Z,1.60
2018-09-25T10:27:33.628Z,1.70
2018-09-25T10:32:42.230Z,1.73
2018-09-25T10:37:50.923Z,1.53
2018-09-25T10:42:59.511Z,0.80
2018-09-25T10:48:08.159Z,1.60
2018-09-25T10:53:17.175Z,1.33
2018-09-25T10:58:25.921Z,1.20
2018-09-25T11:03:34.555Z,1.20
2018-09-25T11:08:43.277Z,1.33
2018-09-25T11:13:51.976Z,1.27
2018-09-25T11:19:01.087Z,1.50
2018-09-25T11:24:09.528Z,0.87
2018-09-25T11:29:18.564Z,1.87
2018-09-25T11:34:27.341Z,1.60
2018-09-25T11:39:36.022Z,1.63
2018-09-25T11:44:44.620Z,1.47
2018-09-25T11:49:54.182Z,1.60
2018-09-25T11:55:02.845Z,1.17
2018-09-25T12:00:11.474Z,1.40
2018-09-25T12:05:20.244Z,1.00
2018-09-25T12:10:28.880Z,0.93
2018-09-25T12:15:37.524Z,1.07
2018-09-25T12:20:46.317Z,1.40
2018-09-25T12:25:54.878Z,1.37
2018-09-25T12:31:03.762Z,1.23
2018-09-25T12:36:12.575Z,1.60
2018-09-25T12:41:21.861Z,1.20
2018-09-25T12:46:30.681Z,1.03
2018-09-25T12:51:39.242Z,1.20
2018-09-25T12:56:47.926Z,1.70
2018-09-25T13:01:56.686Z,1.30
2018-09-25T13:07:05.496Z,1.30
2018-09-25T13:12:14.470Z,1.37
2018-09-25T13:17:23.133Z,1.50
2018-09-25T13:22:32.662Z,1.30
2018-09-25T13:27:41.292Z,1.10
2018-09-25T13:32:50.266Z,1.33
2018-09-25T13:37:58.980Z,1.30
2018-09-25T13:43:07.723Z,1.63
2018-09-25T13:48:17.130Z,1.50
2018-09-25T13:53:26.023Z,1.70
2018-09-25T13:58:34.863Z,1.33
2018-09-25T14:03:43.565Z,1.43
2018-09-25T14:08:52.260Z,1.20
2018-09-25T14:14:01.266Z,1.23
2018-09-25T14:19:09.955Z,1.33
2018-09-25T14:24:18.607Z,1.30
2018-09-25T14:29:27.235Z,1.60
2018-09-25T14:34:35.919Z,1.53
2018-09-25T14:39:45.305Z,2.00
2018-09-25T14:44:53.956Z,2.47
2018-09-25T14:50:02.723Z,1.90
2018-09-25T14:55:11.664Z,1.60
2018-09-25T15:00:20.306Z,1.27
2018-09-25T15:05:29.318Z,1.40
2018-09-25T15:10:38.279Z,1.67
2018-09-25T15:15:46.849Z,1.53
2018-09-25T15:20:55.537Z,1.30
2018-09-25T15:26:04.212Z,1.10
2018-09-25T15:31:12.866Z,1.43
2018-09-25T15:36:21.437Z,1.30
2018-09-25T15:41:30.492Z,1.30
2018-09-25T15:46:39.060Z,1.10
2018-09-25T15:51:47.727Z,1.27
2018-09-25T15:56:56.382Z,1.50
2018-09-25T16:02:05.028Z,1.47
2018-09-25T16:07:13.993Z,1.40
2018-09-25T16:12:22.887Z,1.30
2018-09-25T16:17:32.062Z,1.50
2018-09-25T16:22:41.002Z,1.10
2018-09-25T16:27:49.776Z,1.33
2018-09-25T16:32:58.651Z,1.30
2018-09-25T16:38:07.402Z,1.20
2018-09-25T16:43:16.007Z,1.37
2018-09-25T16:48:25.145Z,1.17
2018-09-25T16:53:33.740Z,1.20
2018-09-25T16:58:42.584Z,1.10
2018-09-25T17:03:51.732Z,1.27
2018-09-25T17:09:00.413Z,1.07
2018-09-25T17:14:09.421Z,1.10
2018-09-25T17:19:18.153Z,1.33
2018-09-25T17:24:27.411Z,1.30
2018-09-25T17:29:36.012Z,1.10
2018-09-25T17:34:45.197Z,1.60
2018-09-25T17:39:53.970Z,1.23
2018-09-25T17:45:02.781Z,1.50
2018-09-25T17:50:11.964Z,1.67
2018-09-25T17:55:20.767Z,1.60
2018-09-25T18:00:29.500Z,1.50
2018-09-25T18:05:45.087Z,1.30
2018-09-25T18:10:53.714Z,1.40
2018-09-25T18:16:02.576Z,1.60
2018-09-25T18:21:11.271Z,1.43
2018-09-25T18:26:19.957Z,2.40
2018-09-25T18:31:28.713Z,1.80
2018-09-25T18:36:37.463Z,1.40
2018-09-25T18:41:46.162Z,1.67
2018-09-25T18:46:55.787Z,1.70
2018-09-25T18:52:05.307Z,1.80
2018-09-25T18:57:14.860Z,1.60
2018-09-25T19:02:23.457Z,2.00
2018-09-25T19:07:32.345Z,2.03
2018-09-25T19:12:41.190Z,1.60
2018-09-25T19:17:49.819Z,1.80
2018-09-25T19:22:58.643Z,2.10
2018-09-25T19:28:07.417Z,2.37
2018-09-25T19:33:16.004Z,1.77
2018-09-25T19:38:24.819Z,2.17
2018-09-25T19:43:33.482Z,1.70
2018-09-25T19:48:42.367Z,2.13
2018-09-25T19:53:51.978Z,2.87
2018-09-25T19:59:01.184Z,1.53
2018-09-25T20:04:11.484Z,1.80
2018-09-25T20:09:20.561Z,2.47
2018-09-25T20:14:29.609Z,2.27
2018-09-25T20:19:38.723Z,1.87
2018-09-25T20:24:47.955Z,2.10
2018-09-25T20:29:57.274Z,2.00
2018-09-25T20:35:06.415Z,2.20
2018-09-25T20:40:16.124Z,1.97
2018-09-25T20:45:24.827Z,1.83
2018-09-25T20:50:33.817Z,1.83
2018-09-25T20:55:43.247Z,2.30
2018-09-25T21:00:52.195Z,1.83
2018-09-25T21:06:01.704Z,1.77
2018-09-25T21:11:10.521Z,2.30
2018-09-25T21:16:19.547Z,2.07
2018-09-25T21:21:28.420Z,2.10
2018-09-25T21:26:37.162Z,1.83
2018-09-25T21:31:46.112Z,2.00
2018-09-25T21:36:54.978Z,2.33
2018-09-25T21:42:04.581Z,1.50
2018-09-25T21:47:13.443Z,3.93
2018-09-25T21:52:22.164Z,1.40
2018-09-25T21:57:31.283Z,1.37
2018-09-25T22:02:39.938Z,1.57
2018-09-25T22:07:49.380Z,1.40
2018-09-25T22:12:57.984Z,1.60
2018-09-25T22:18:06.961Z,1.80
2018-09-25T22:23:15.546Z,1.63
2018-09-25T22:28:24.184Z,1.47
2018-09-25T22:33:32.814Z,1.40
2018-09-25T22:38:41.487Z,1.30
2018-09-25T22:43:50.296Z,1.00
2018-09-25T22:48:59.055Z,1.23
2018-09-25T22:54:07.812Z,1.47
2018-09-25T22:59:16.414Z,1.47
2018-09-25T23:04:25.191Z,1.20
2018-09-25T23:09:33.781Z,1.40
2018-09-25T23:14:42.395Z,1.70
2018-09-25T23:19:51.000Z,1.50
2018-09-25T23:24:59.581Z,1.47
2018-09-25T23:30:08.147Z,1.30
2018-09-25T23:35:16.709Z,1.13
2018-09-25T23:42:27.132Z,1.27
2018-09-25T23:47:45.684Z,1.70
2018-09-25T23:52:54.236Z,1.50
2018-09-25T23:58:03.784Z,2.57
